Time;durP1;ratioP1;P1;durP2;ratioP2;P2;SDS_P1;SDS_P2;PMS_P1;PMS_P2;Temp;Humidity;BMP_temperature;BMP_pressure;BME280_temperature;BME280_humidity;BME280_pressure;Samples;Min_cycle;Max_cycle;Signal;HPM_P1;HPM_P2
2021/03/07 00:02:25;;;;;;;14.13;6.00;;;;;;;20.65;13.64;99184.22;5035955;28;20110;-80
2021/03/07 00:04:52;;;;;;;12.00;5.97;;;;;;;20.54;13.70;99180.50;5035742;28;20026;-80
2021/03/07 00:07:18;;;;;;;10.63;5.38;;;;;;;20.56;13.94;99178.94;5035709;28;20065;-80
2021/03/07 00:09:44;;;;;;;11.75;4.50;;;;;;;20.49;14.02;99181.66;5022335;28;20083;-80
2021/03/07 00:12:11;;;;;;;11.45;5.32;;;;;;;20.34;14.11;99187.47;5015622;28;20034;-80
2021/03/07 00:14:37;;;;;;;10.02;5.20;;;;;;;20.24;14.13;99177.81;5034017;28;20022;-80
2021/03/07 00:17:03;;;;;;;10.50;5.35;;;;;;;20.22;14.07;99177.41;5035544;28;20481;-80
2021/03/07 00:19:29;;;;;;;10.52;5.05;;;;;;;20.26;13.99;99171.84;5035586;28;20029;-80
2021/03/07 00:21:55;;;;;;;12.80;5.38;;;;;;;20.19;14.06;99166.16;5034669;28;20363;-80
2021/03/07 00:24:21;;;;;;;11.50;5.78;;;;;;;20.20;13.98;99167.78;5035441;28;20057;-80
2021/03/07 00:26:47;;;;;;;11.07;4.82;;;;;;;20.33;14.03;99171.91;5035179;28;20041;-80
2021/03/07 00:29:13;;;;;;;10.90;4.63;;;;;;;20.48;13.83;99168.91;5035237;28;20052;-80
2021/03/07 00:31:39;;;;;;;12.52;5.22;;;;;;;20.50;13.77;99160.16;5035083;28;20029;-80
2021/03/07 00:34:05;;;;;;;12.52;4.43;;;;;;;20.47;14.00;99155.31;5035202;28;20347;-80
2021/03/07 00:36:31;;;;;;;11.18;4.88;;;;;;;20.23;13.83;99148.34;5036192;28;20034;-80
2021/03/07 00:38:57;;;;;;;9.15;4.63;;;;;;;20.31;13.97;99141.63;5044432;28;20433;-80
2021/03/07 00:41:24;;;;;;;11.30;5.07;;;;;;;20.25;13.97;99134.00;5035190;28;20140;-80
2021/03/07 00:43:50;;;;;;;9.85;5.60;;;;;;;20.30;14.02;99122.50;5035099;28;20079;-80
2021/03/07 00:46:16;;;;;;;11.52;5.45;;;;;;;20.27;13.74;99123.25;5035362;28;20036;-80
2021/03/07 00:48:42;;;;;;;11.70;5.60;;;;;;;20.42;13.69;99114.63;5035012;28;20432;-80
2021/03/07 00:51:08;;;;;;;11.82;5.50;;;;;;;20.43;13.63;99107.06;5034854;28;20057;-80
2021/03/07 00:53:34;;;;;;;11.55;4.68;;;;;;;20.61;13.59;99102.44;5031238;28;20064;-80
2021/03/07 00:56:00;;;;;;;10.93;5.82;;;;;;;20.69;13.54;99095.75;5014804;28;20030;-80
2021/03/07 00:58:26;;;;;;;18.48;7.75;;;;;;;20.53;13.51;99087.66;5015108;28;20049;-80
2021/03/07 01:00:52;;;;;;;12.93;4.88;;;;;;;20.20;13.84;99084.94;5014986;28;20105;-80
2021/03/07 01:03:18;;;;;;;8.98;5.07;;;;;;;20.30;14.00;99080.66;5014963;28;20129;-80
2021/03/07 01:05:44;;;;;;;11.25;5.10;;;;;;;20.10;13.94;99077.25;5033826;28;20036;-80
2021/03/07 01:08:10;;;;;;;9.15;4.93;;;;;;;20.17;13.98;99077.31;5022766;28;20038;-80
2021/03/07 01:10:40;;;;;;;10.65;4.97;;;;;;;20.19;13.74;99069.38;5014471;28;20482;-80
2021/03/07 01:13:10;;;;;;;10.35;5.43;;;;;;;20.25;13.69;99059.53;5015136;28;20099;-80
2021/03/07 01:15:36;;;;;;;12.13;5.82;;;;;;;20.32;13.68;99065.16;5014767;28;20037;-80
2021/03/07 01:18:02;;;;;;;14.52;5.28;;;;;;;20.14;14.00;99063.38;5014619;28;20037;-80
2021/03/07 01:20:28;;;;;;;14.75;6.45;;;;;;;20.03;14.01;99063.25;5015047;28;20437;-80
2021/03/07 01:22:56;;;;;;;16.88;6.65;;;;;;;20.21;13.81;99057.84;5034358;28;20474;-80
2021/03/07 01:25:24;;;;;;;9.98;4.60;;;;;;;20.26;13.87;99054.72;5033974;28;20037;-80
2021/03/07 01:27:50;;;;;;;9.65;4.63;;;;;;;20.37;13.71;99055.63;5034377;28;20087;-80
2021/03/07 01:30:18;;;;;;;9.27;4.70;;;;;;;20.36;13.50;99043.66;5034047;28;20467;-80
2021/03/07 01:32:45;;;;;;;8.88;4.93;;;;;;;20.43;13.57;99038.16;5044130;28;20095;-80
2021/03/07 01:35:12;;;;;;;10.20;4.63;;;;;;;20.46;13.58;99042.16;5054014;28;20115;-80
2021/03/07 01:37:38;;;;;;;12.60;5.38;;;;;;;20.27;13.74;99029.25;5033458;28;20046;-80
2021/03/07 01:40:32;;;;;;;11.80;6.00;;;;;;;19.99;13.81;99028.97;5033755;28;20088;-80
2021/03/07 01:43:00;;;;;;;14.55;5.70;;;;;;;20.05;13.86;99019.06;5034267;28;20473;-80
2021/03/07 01:45:29;;;;;;;10.75;5.43;;;;;;;19.85;13.99;99017.69;5031436;28;20057;-80
2021/03/07 01:47:58;;;;;;;9.85;5.40;;;;;;;20.02;13.87;99014.28;5029974;28;20482;-80
2021/03/07 01:50:26;;;;;;;9.85;4.57;;;;;;;20.04;14.03;99009.09;5033819;28;20040;-80
2021/03/07 01:52:53;;;;;;;10.48;5.18;;;;;;;20.04;13.81;98991.56;5033536;28;20029;-80
2021/03/07 01:55:25;;;;;;;9.40;4.30;;;;;;;20.25;13.61;98986.22;5023630;28;20036;-80
2021/03/07 01:58:12;;;;;;;10.15;4.57;;;;;;;20.33;13.65;98985.06;5033549;28;20026;-80
2021/03/07 02:00:38;;;;;;;10.13;4.38;;;;;;;19.87;14.08;98982.66;5034095;28;20038;-80
2021/03/07 02:03:05;;;;;;;9.73;5.28;;;;;;;19.87;14.06;98988.25;5033536;28;20037;-80
2021/03/07 02:05:31;;;;;;;9.68;4.38;;;;;;;19.82;13.81;98977.44;5033746;28;20033;-80
2021/03/07 02:07:58;;;;;;;9.05;4.25;;;;;;;20.06;13.71;98987.22;5033703;28;20095;-80
2021/03/07 02:10:29;;;;;;;6.75;4.20;;;;;;;20.27;13.59;98978.25;5033600;28;20059;-80
2021/03/07 02:13:02;;;;;;;10.73;4.78;;;;;;;20.06;13.76;98980.84;5033148;28;20029;-80
2021/03/07 02:15:30;;;;;;;9.70;5.22;;;;;;;20.02;13.93;98989.19;5033890;28;20032;-80
2021/03/07 02:17:57;;;;;;;8.52;4.13;;;;;;;20.13;13.71;98980.91;5033441;28;20041;-80
2021/03/07 02:20:26;;;;;;;11.13;5.07;;;;;;;20.17;13.82;98976.94;5033444;28;20027;-80
2021/03/07 02:23:00;;;;;;;11.13;5.68;;;;;;;19.35;14.39;98974.50;5033439;28;20029;-80
2021/03/07 02:25:28;;;;;;;10.85;4.22;;;;;;;20.08;13.84;98973.69;5039583;28;20033;-80
2021/03/07 02:27:55;;;;;;;8.38;4.60;;;;;;;20.38;13.55;98970.75;5053437;28;20025;-80
2021/03/07 02:30:22;;;;;;;10.07;4.78;;;;;;;19.98;14.04;98966.03;5034064;28;20393;-80
2021/03/07 02:33:05;;;;;;;12.27;5.55;;;;;;;19.56;14.27;98960.03;5024105;28;20116;-80
2021/03/07 02:35:33;;;;;;;10.57;4.82;;;;;;;19.21;14.62;98966.00;5028543;28;20018;-80
2021/03/07 02:38:02;;;;;;;8.90;4.55;;;;;;;19.22;14.61;98964.84;5013176;28;20069;-80
2021/03/07 02:40:29;;;;;;;12.30;5.07;;;;;;;19.66;14.35;98965.75;5013448;28;20034;-80
2021/03/07 02:42:58;;;;;;;10.35;4.63;;;;;;;19.53;14.39;98958.84;5013501;28;20038;-80
2021/03/07 02:45:26;;;;;;;9.80;4.50;;;;;;;19.52;14.37;98960.03;5021963;28;20030;-80
2021/03/07 02:47:54;;;;;;;8.48;4.35;;;;;;;20.12;13.90;98952.22;5037781;28;20413;-80
2021/03/07 02:50:25;;;;;;;6.63;3.40;;;;;;;19.68;14.13;98965.34;5037082;28;20397;-80
2021/03/07 02:53:05;;;;;;;8.90;4.15;;;;;;;19.86;14.10;98963.56;5037096;28;20394;-80
2021/03/07 02:55:35;;;;;;;8.88;4.28;;;;;;;19.86;14.14;98960.78;5035014;28;20033;-80
2021/03/07 02:58:11;;;;;;;8.47;4.53;;;;;;;19.52;14.36;98962.81;5017196;28;20131;-81
2021/03/07 03:00:38;;;;;;;10.65;4.65;;;;;;;20.08;13.87;98958.94;5017869;28;20033;-80
2021/03/07 03:03:11;;;;;;;12.45;5.45;;;;;;;20.15;13.80;98956.22;5022526;28;20112;-80
2021/03/07 03:05:38;;;;;;;12.30;5.10;;;;;;;20.36;13.57;98948.84;5036771;28;20095;-80
2021/03/07 03:08:05;;;;;;;10.23;4.35;;;;;;;20.50;13.53;98942.56;5036630;28;20056;-80
2021/03/07 03:10:33;;;;;;;8.32;4.07;;;;;;;20.15;13.80;98956.22;5037031;28;20381;-80
2021/03/07 03:13:01;;;;;;;9.73;4.40;;;;;;;20.37;13.62;98947.66;5035658;28;20041;-80
2021/03/07 03:15:29;;;;;;;10.38;5.13;;;;;;;20.48;13.56;98942.94;5036771;28;20048;-80
2021/03/07 03:17:56;;;;;;;7.07;4.10;;;;;;;20.12;13.85;98940.28;5036662;28;20033;-80
2021/03/07 03:20:22;;;;;;;7.63;3.88;;;;;;;20.39;13.52;98933.31;5029743;28;20037;-80
2021/03/07 03:22:49;;;;;;;9.60;4.18;;;;;;;20.55;13.58;98939.41;5036718;28;20481;-80
2021/03/07 03:25:16;;;;;;;10.10;4.78;;;;;;;20.46;13.60;98938.94;5036634;28;20034;-80
2021/03/07 03:27:42;;;;;;;12.43;5.22;;;;;;;19.96;13.98;98944.13;5036617;28;20033;-79
2021/03/07 03:30:15;;;;;;;9.68;4.10;;;;;;;19.77;14.14;98947.13;5036440;28;20108;-80
2021/03/07 03:32:41;;;;;;;8.85;4.07;;;;;;;20.10;13.81;98934.25;5036311;28;20034;-80
2021/03/07 03:35:11;;;;;;;7.60;3.88;;;;;;;20.20;13.75;98937.16;5036147;28;20590;-80
2021/03/07 03:37:38;;;;;;;9.40;4.50;;;;;;;20.05;14.03;98934.66;5036062;28;20034;-80
2021/03/07 03:40:08;;;;;;;12.93;5.80;;;;;;;19.91;14.00;98941.69;5036387;28;20389;-80
2021/03/07 03:42:41;;;;;;;16.20;5.17;;;;;;;19.73;14.11;98937.16;5036554;28;20041;-80
2021/03/07 03:45:08;;;;;;;10.27;4.63;;;;;;;19.78;14.01;98947.94;5036291;28;20033;-80
2021/03/07 03:47:38;;;;;;;10.00;4.10;;;;;;;19.68;14.11;98948.63;5036133;28;20033;-80
2021/03/07 03:50:06;;;;;;;10.98;4.47;;;;;;;19.64;14.25;98942.22;5035854;28;20120;-80
2021/03/07 03:52:37;;;;;;;12.38;5.47;;;;;;;19.85;14.04;98939.66;5036193;28;20037;-80
2021/03/07 03:55:24;;;;;;;10.40;4.80;;;;;;;19.89;14.01;98929.31;5036034;28;20036;-80
2021/03/07 03:58:07;;;;;;;8.82;4.45;;;;;;;19.79;14.08;98939.19;5030176;28;20025;-80
2021/03/07 04:00:37;;;;;;;9.68;4.55;;;;;;;19.46;14.38;98935.69;5048092;28;20398;-80
2021/03/07 04:03:06;;;;;;;9.10;3.60;;;;;;;19.80;14.00;98937.22;5015849;28;20034;-80
2021/03/07 04:05:33;;;;;;;10.77;4.72;;;;;;;19.88;13.92;98925.72;5016014;28;20022;-80
2021/03/07 04:08:01;;;;;;;9.48;3.58;;;;;;;20.22;13.75;98932.00;5016149;28;20074;-80
2021/03/07 04:10:27;;;;;;;8.23;4.00;;;;;;;20.08;13.81;98937.44;5016139;28;20084;-80
2021/03/07 04:12:58;;;;;;;8.02;3.38;;;;;;;20.16;13.78;98927.16;5034206;28;20484;-80
2021/03/07 04:15:27;;;;;;;5.80;3.42;;;;;;;20.25;13.77;98930.44;5055669;28;20056;-80
2021/03/07 04:17:55;;;;;;;5.63;3.33;;;;;;;20.34;13.37;98933.69;5055483;28;20029;-80
2021/03/07 04:20:23;;;;;;;4.72;2.95;;;;;;;20.24;13.70;98928.81;5055522;28;20090;-80
2021/03/07 04:22:49;;;;;;;3.67;2.42;;;;;;;20.50;13.29;98926.63;5055493;28;20087;-80
2021/03/07 04:25:16;;;;;;;6.55;2.78;;;;;;;20.64;13.15;98920.31;5055405;28;20094;-80
2021/03/07 04:27:44;;;;;;;5.95;2.92;;;;;;;20.54;13.02;98927.44;5052716;28;20029;-80
2021/03/07 04:30:11;;;;;;;8.38;3.58;;;;;;;20.38;13.16;98926.94;5035348;28;20033;-80
2021/03/07 04:32:38;;;;;;;6.72;3.33;;;;;;;19.99;13.36;98928.63;5034946;28;20052;-79
2021/03/07 04:35:06;;;;;;;5.63;2.97;;;;;;;20.00;13.47;98931.00;5035828;28;20037;-80
2021/03/07 04:37:32;;;;;;;5.65;3.35;;;;;;;19.80;13.71;98928.84;5035132;28;20042;-80
2021/03/07 04:39:58;;;;;;;7.25;3.20;;;;;;;19.97;13.84;98923.44;5035303;28;20552;-80
2021/03/07 04:42:24;;;;;;;6.03;3.25;;;;;;;19.73;13.92;98921.22;5035205;28;20033;-80
2021/03/07 04:44:50;;;;;;;5.10;3.08;;;;;;;19.45;13.87;98912.59;5035008;28;20033;-80
2021/03/07 04:47:16;;;;;;;7.15;3.33;;;;;;;19.52;13.92;98907.09;5035082;28;20040;-80
2021/03/07 04:49:43;;;;;;;5.90;3.03;;;;;;;19.84;13.57;98899.81;5034975;28;20486;-80
2021/03/07 04:52:09;;;;;;;8.85;3.35;;;;;;;19.86;13.86;98902.25;5034850;28;20116;-80
2021/03/07 04:54:35;;;;;;;6.47;3.22;;;;;;;19.92;14.09;98900.69;5034959;28;20034;-80
2021/03/07 04:57:05;;;;;;;6.80;2.78;;;;;;;19.96;13.70;98898.72;5033657;28;20033;-80
2021/03/07 04:59:31;;;;;;;6.22;3.20;;;;;;;20.14;13.71;98898.88;5032119;28;20042;-80
2021/03/07 05:01:57;;;;;;;4.43;2.40;;;;;;;20.26;13.26;98893.78;5019048;28;20034;-80
2021/03/07 05:04:24;;;;;;;7.18;3.45;;;;;;;20.39;13.20;98894.28;5029007;28;20101;-80
2021/03/07 05:06:51;;;;;;;8.20;3.08;;;;;;;20.56;13.06;98888.00;5015404;28;20429;-80
2021/03/07 05:09:17;;;;;;;8.00;3.20;;;;;;;20.66;12.94;98887.25;5043947;28;20504;-80
2021/03/07 05:11:43;;;;;;;5.88;3.10;;;;;;;20.75;12.95;98882.09;5054498;28;20037;-80
2021/03/07 05:14:09;;;;;;;8.02;2.65;;;;;;;20.70;12.92;98878.91;5054591;28;20021;-79
2021/03/07 05:16:35;;;;;;;6.78;3.63;;;;;;;20.53;13.00;98870.06;5054159;28;20543;-80
2021/03/07 05:19:03;;;;;;;6.10;3.30;;;;;;;20.20;13.29;98870.22;5049081;28;20508;-79
2021/03/07 05:21:29;;;;;;;5.45;3.33;;;;;;;20.22;13.57;98864.28;5034516;28;20033;-79
2021/03/07 05:23:56;;;;;;;5.35;2.92;;;;;;;19.79;13.77;98863.94;5034415;28;20033;-79
2021/03/07 05:26:22;;;;;;;7.63;3.05;;;;;;;19.59;13.98;98864.59;5034263;28;20061;-79
2021/03/07 05:28:49;;;;;;;6.28;3.50;;;;;;;19.51;14.01;98854.59;5034247;28;20029;-79
2021/03/07 05:31:15;;;;;;;4.93;3.40;;;;;;;19.50;13.86;98852.97;5033841;28;20087;-79
2021/03/07 05:33:41;;;;;;;6.70;3.60;;;;;;;19.56;13.89;98848.63;5033867;28;20033;-79
2021/03/07 05:36:07;;;;;;;5.90;3.25;;;;;;;19.75;13.85;98845.59;5026163;28;20104;-79
2021/03/07 05:38:34;;;;;;;5.43;3.40;;;;;;;19.99;13.63;98853.34;5034433;28;20040;-79
2021/03/07 05:41:00;;;;;;;5.35;2.78;;;;;;;19.96;13.72;98860.50;5034308;28;20025;-79
2021/03/07 05:43:26;;;;;;;5.93;3.60;;;;;;;19.94;13.73;98859.28;5034012;28;20112;-79
2021/03/07 05:45:52;;;;;;;6.43;3.60;;;;;;;19.99;13.72;98859.75;5033825;28;20030;-79
2021/03/07 05:48:19;;;;;;;6.65;3.50;;;;;;;20.12;13.69;98851.06;5033953;28;20033;-79
2021/03/07 05:50:45;;;;;;;5.45;3.30;;;;;;;20.44;13.40;98849.28;5034030;28;20092;-79
2021/03/07 05:53:12;;;;;;;7.50;3.45;;;;;;;20.57;13.36;98851.34;5033718;28;20057;-79
2021/03/07 05:55:39;;;;;;;9.82;4.35;;;;;;;20.74;13.02;98843.44;5033823;28;20033;-79
2021/03/07 05:58:06;;;;;;;13.88;5.30;;;;;;;20.20;13.45;98844.31;5033670;28;20048;-79
2021/03/07 06:00:33;;;;;;;9.32;4.70;;;;;;;20.38;13.51;98848.03;5033521;28;20420;-79
2021/03/07 06:02:59;;;;;;;8.45;4.95;;;;;;;20.51;13.38;98849.31;5047950;28;20036;-79
2021/03/07 06:05:25;;;;;;;15.05;6.45;;;;;;;20.34;13.43;98850.03;5039599;28;20541;-80
2021/03/07 06:07:52;;;;;;;13.55;5.93;;;;;;;20.72;13.39;98843.81;5025047;28;20051;-79
2021/03/07 06:10:23;;;;;;;12.57;6.45;;;;;;;20.76;13.32;98850.22;5046245;28;20421;-79
2021/03/07 06:13:10;;;;;;;11.93;5.88;;;;;;;20.57;13.66;98844.94;5033297;28;20075;-79
2021/03/07 06:15:37;;;;;;;9.07;4.57;;;;;;;20.39;13.83;98846.84;5033601;28;20378;-79
2021/03/07 06:18:19;;;;;;;10.85;5.22;;;;;;;20.63;13.64;98848.97;5033437;28;20045;-79
2021/03/07 06:20:46;;;;;;;10.23;4.95;;;;;;;20.46;13.86;98839.34;5033229;28;20383;-79
2021/03/07 06:23:13;;;;;;;11.88;5.55;;;;;;;20.00;14.13;98841.81;5033451;28;20086;-79
2021/03/07 06:25:52;;;;;;;9.90;5.25;;;;;;;19.32;14.54;98833.31;5033360;28;20060;-79
2021/03/07 06:28:27;;;;;;;7.80;4.30;;;;;;;19.22;15.14;98839.56;5032895;28;20072;-79
2021/03/07 06:30:54;;;;;;;7.57;3.88;;;;;;;20.02;14.74;98836.66;5033530;28;20030;-80
2021/03/07 06:33:39;;;;;;;5.63;3.25;;;;;;;19.95;14.97;98835.81;5031348;28;20033;-79
2021/03/07 06:36:20;;;;;;;7.50;4.55;;;;;;;20.59;14.36;98839.78;5014191;28;20086;-79
2021/03/07 06:38:53;;;;;;;7.72;3.58;;;;;;;19.56;15.11;98835.50;5013990;28;20038;-79
2021/03/07 06:41:30;;;;;;;7.35;3.92;;;;;;;19.27;15.53;98830.84;5013480;28;20124;-79
2021/03/07 06:44:09;;;;;;;7.95;4.25;;;;;;;20.37;14.75;98832.50;5017585;28;20033;-79
2021/03/07 06:46:37;;;;;;;6.78;3.47;;;;;;;20.52;14.78;98840.53;5033233;28;20029;-79
2021/03/07 06:49:04;;;;;;;6.65;4.15;;;;;;;19.70;15.29;98841.19;5033128;28;20034;-80
2021/03/07 06:51:35;;;;;;;6.88;3.92;;;;;;;20.51;14.67;98832.59;5033012;28;20038;-80
2021/03/07 06:54:16;;;;;;;7.95;5.05;;;;;;;19.91;15.23;98832.19;5033366;28;20083;-80
2021/03/07 06:56:46;;;;;;;9.82;4.90;;;;;;;19.99;15.36;98833.84;5039424;28;20425;-80
2021/03/07 06:59:23;;;;;;;9.75;4.80;;;;;;;20.74;14.45;98830.28;5052556;28;20049;-80
2021/03/07 07:01:54;;;;;;;9.40;4.32;;;;;;;21.23;14.61;98829.63;5040987;28;20034;-80
2021/03/07 07:04:22;;;;;;;6.60;4.32;;;;;;;21.52;14.07;98831.25;5020563;28;20030;-80
2021/03/07 07:07:09;;;;;;;14.55;5.15;;;;;;;21.60;13.90;98818.88;5013144;28;20482;-81
2021/03/07 07:09:36;;;;;;;8.02;4.25;;;;;;;22.11;13.68;98824.03;5016370;28;20044;-80
2021/03/07 07:12:05;;;;;;;11.60;4.22;;;;;;;22.23;13.51;98812.41;5012934;28;20389;-80
2021/03/07 07:14:41;;;;;;;8.60;4.65;;;;;;;21.95;13.63;98810.50;5013255;28;20033;-80
2021/03/07 07:17:12;;;;;;;6.78;3.85;;;;;;;22.13;13.59;98804.84;5013148;28;20034;-80
2021/03/07 07:19:39;;;;;;;8.10;4.50;;;;;;;22.41;13.69;98809.56;5031162;28;20034;-80
2021/03/07 07:22:07;;;;;;;6.55;3.88;;;;;;;22.68;13.46;98807.88;5032937;28;20030;-80
2021/03/07 07:24:33;;;;;;;7.43;3.38;;;;;;;22.80;13.47;98810.22;5033096;28;20033;-80
2021/03/07 07:27:01;;;;;;;6.03;3.65;;;;;;;22.81;13.11;98811.00;5032477;28;20029;-80
2021/03/07 07:29:28;;;;;;;7.10;3.75;;;;;;;23.42;13.48;98807.44;5028179;28;20445;-80
2021/03/07 07:32:02;;;;;;;7.28;3.90;;;;;;;23.22;13.17;98809.19;5014623;28;20391;-80
2021/03/07 07:34:43;;;;;;;6.50;3.45;;;;;;;23.00;12.75;98805.72;5024953;28;20033;-80
2021/03/07 07:37:17;;;;;;;5.57;2.72;;;;;;;22.01;13.07;98797.69;5027760;28;20037;-81
2021/03/07 07:39:44;;;;;;;7.43;3.70;;;;;;;22.02;13.60;98790.09;5036598;28;20021;-80
2021/03/07 07:42:55;;;;;;;8.82;4.13;;;;;;;19.67;15.32;98785.47;5036350;28;20401;-80
2021/03/07 07:45:21;;;;;;;7.72;4.15;;;;;;;20.45;14.67;98797.88;5017406;28;20049;-81
2021/03/07 07:47:50;;;;;;;9.73;4.28;;;;;;;19.71;15.36;98784.31;5036421;28;20029;-81
2021/03/07 07:52:55;;;;;;;8.68;3.83;;;;;;;19.12;16.30;98784.56;5040854;28;20072;-80
2021/03/07 07:55:45;;;;;;;8.20;4.35;;;;;;;20.37;15.41;98773.94;5035855;28;20108;-80
2021/03/07 07:58:34;;;;;;;7.20;3.55;;;;;;;21.05;14.56;98772.97;5035658;28;20509;-81
2021/03/07 08:01:02;;;;;;;9.68;4.40;;;;;;;22.12;14.17;98761.31;5061333;28;20420;-81
2021/03/07 08:03:50;;;;;;;7.28;3.58;;;;;;;21.66;14.20;98753.00;5034613;28;20048;-81
2021/03/07 08:06:28;;;;;;;7.65;3.88;;;;;;;20.68;15.30;98760.09;5035819;28;20065;-81
2021/03/07 08:08:55;;;;;;;8.65;5.10;;;;;;;19.79;15.52;98752.50;5035622;28;20449;-80
2021/03/07 08:11:31;;;;;;;5.80;3.78;;;;;;;19.77;15.76;98752.09;5020857;28;20038;-80
2021/03/07 08:13:59;;;;;;;6.43;3.90;;;;;;;20.46;14.94;98755.66;5016112;28;20034;-81
2021/03/07 08:16:42;;;;;;;10.02;4.30;;;;;;;20.85;14.54;98740.97;5016394;28;20128;-81
2021/03/07 08:19:18;;;;;;;7.35;4.15;;;;;;;19.11;16.63;98744.03;5015722;28;20498;-81
2021/03/07 08:22:07;;;;;;;5.40;3.50;;;;;;;19.87;15.24;98740.22;5015665;28;20037;-81
2021/03/07 08:24:52;;;;;;;7.00;4.75;;;;;;;18.73;16.34;98742.47;5015846;28;20030;-81
2021/03/07 08:27:31;;;;;;;6.25;3.55;;;;;;;19.27;16.44;98737.00;5031375;28;20098;-81
2021/03/07 08:29:57;;;;;;;6.00;3.47;;;;;;;16.98;17.33;98738.81;5015652;28;20037;-81
2021/03/07 08:32:37;;;;;;;5.35;3.85;;;;;;;16.59;18.56;98740.91;5020464;28;20067;-81
2021/03/07 08:35:14;;;;;;;5.93;3.55;;;;;;;17.88;18.38;98735.06;5035265;28;20033;-81
2021/03/07 08:37:41;;;;;;;8.55;4.50;;;;;;;18.20;17.15;98721.59;5035277;28;20032;-81
2021/03/07 08:40:30;;;;;;;10.88;5.28;;;;;;;18.86;16.25;98723.50;5035059;28;20041;-81
2021/03/07 08:43:25;;;;;;;7.07;4.38;;;;;;;17.82;17.00;98722.69;5034053;28;20029;-81
2021/03/07 08:46:10;;;;;;;10.93;5.50;;;;;;;18.39;16.79;98707.53;5014076;28;20402;-81
2021/03/07 08:48:45;;;;;;;9.98;5.03;;;;;;;18.37;16.22;98716.22;5014069;28;20034;-81
2021/03/07 08:51:12;;;;;;;8.88;4.88;;;;;;;18.97;16.96;98710.50;5028948;28;20040;-81
2021/03/07 08:53:40;;;;;;;5.95;3.83;;;;;;;17.46;18.28;98713.03;5054844;28;20448;-81
2021/03/07 08:56:07;;;;;;;10.32;5.05;;;;;;;18.57;16.85;98703.78;5050719;28;20079;-81
2021/03/07 08:58:34;;;;;;;8.65;5.03;;;;;;;18.79;16.71;98690.06;5015457;28;20057;-81
2021/03/07 09:01:01;;;;;;;9.23;3.78;;;;;;;21.03;15.83;98683.97;5030144;28;20111;-81
2021/03/07 09:03:28;;;;;;;7.45;4.07;;;;;;;21.71;14.55;98673.53;5044153;28;20173;-81
2021/03/07 09:05:55;;;;;;;7.75;4.30;;;;;;;21.82;14.18;98680.69;5034971;28;20034;-81
2021/03/07 09:08:23;;;;;;;5.95;3.33;;;;;;;21.71;14.45;98679.13;5034462;28;20040;-81
2021/03/07 09:10:51;;;;;;;7.50;4.25;;;;;;;20.88;14.72;98676.00;5034527;28;20078;-81
2021/03/07 09:13:20;;;;;;;7.50;4.05;;;;;;;21.09;15.12;98678.81;5034885;28;20025;-81
2021/03/07 09:16:01;;;;;;;7.80;3.50;;;;;;;21.07;14.51;98650.50;5034459;28;20037;-81
2021/03/07 09:18:31;;;;;;;7.88;3.63;;;;;;;20.40;14.86;98672.72;5034430;28;20026;-82
2021/03/07 09:21:03;;;;;;;6.13;3.65;;;;;;;18.78;16.50;98671.78;5034556;28;20038;-81
2021/03/07 09:23:43;;;;;;;6.32;3.70;;;;;;;20.00;15.29;98669.00;5034051;28;20112;-81
2021/03/07 09:26:15;;;;;;;4.40;3.33;;;;;;;19.11;15.83;98652.19;5034570;28;20029;-82
2021/03/07 09:28:46;;;;;;;6.95;3.58;;;;;;;18.91;16.43;98659.16;5034194;28;20029;-81
2021/03/07 09:31:24;;;;;;;6.05;4.07;;;;;;;19.62;16.30;98660.47;5029534;28;20042;-82
2021/03/07 09:33:52;;;;;;;5.68;3.35;;;;;;;19.46;16.05;98652.44;5018320;28;20029;-82
2021/03/07 09:36:20;;;;;;;7.07;3.83;;;;;;;20.22;15.44;98646.81;5034177;28;20439;-82
2021/03/07 09:38:58;;;;;;;7.07;2.88;;;;;;;21.01;15.13;98627.75;5033912;28;20397;-82
2021/03/07 09:41:35;;;;;;;5.90;3.60;;;;;;;20.76;15.09;98629.75;5043277;28;20040;-82
2021/03/07 09:44:10;;;;;;;6.25;3.20;;;;;;;20.30;15.50;98626.94;5053951;28;20029;-82
2021/03/07 09:46:37;;;;;;;3.88;3.40;;;;;;;18.87;16.66;98624.97;5053904;28;20032;-82
2021/03/07 09:49:05;;;;;;;5.95;3.70;;;;;;;18.43;16.83;98636.88;5053807;28;20441;-82
2021/03/07 09:51:37;;;;;;;7.05;3.83;;;;;;;17.09;17.25;98626.84;5043602;28;20040;-82
2021/03/07 09:54:09;;;;;;;3.35;2.85;;;;;;;17.94;17.39;98634.38;5033843;28;20068;-81
2021/03/07 09:56:35;;;;;;;5.28;3.17;;;;;;;18.24;16.75;98634.31;5033988;28;20037;-82
2021/03/07 09:59:32;;;;;;;7.28;3.85;;;;;;;16.46;18.27;98600.88;5016607;28;20070;-82
2021/03/07 10:02:05;;;;;;;5.22;3.55;;;;;;;16.23;18.32;98620.25;5045604;28;20080;-81
2021/03/07 10:04:41;;;;;;;7.82;3.92;;;;;;;15.81;19.28;98622.22;5014166;28;20034;-81
2021/03/07 10:07:10;;;;;;;4.97;3.45;;;;;;;15.89;19.97;98635.06;5013826;28;20493;-82
2021/03/07 10:09:55;;;;;;;6.10;3.20;;;;;;;16.56;18.15;98611.38;5031814;28;20032;-81
2021/03/07 10:12:21;;;;;;;10.45;4.70;;;;;;;17.08;18.56;98605.06;5033731;28;20034;-81
2021/03/07 10:14:54;;;;;;;6.35;3.78;;;;;;;16.25;18.46;98604.06;5033775;28;20214;-81
2021/03/07 10:17:21;;;;;;;6.45;3.75;;;;;;;16.20;18.78;98604.38;5033570;28;20040;-81
2021/03/07 10:19:47;;;;;;;4.50;3.20;;;;;;;17.31;17.38;98591.91;5033486;28;20039;-81
2021/03/07 10:22:14;;;;;;;9.85;4.22;;;;;;;18.69;17.36;98597.00;5033404;28;20034;-81
2021/03/07 10:24:40;;;;;;;6.05;3.70;;;;;;;17.34;18.91;98588.34;5033471;28;20076;-81
2021/03/07 10:27:09;;;;;;;9.75;4.95;;;;;;;17.68;17.80;98587.25;5033354;28;20033;-81
2021/03/07 10:29:39;;;;;;;7.40;4.20;;;;;;;16.83;18.25;98590.78;5033194;28;20394;-81
2021/03/07 10:32:10;;;;;;;7.25;4.05;;;;;;;17.49;18.22;98589.34;5023659;28;20120;-81
2021/03/07 10:34:47;;;;;;;10.57;4.78;;;;;;;17.04;17.79;98585.56;5013944;28;20029;-81
2021/03/07 10:37:33;;;;;;;5.85;3.50;;;;;;;16.28;19.01;98572.88;5049801;28;20056;-81
2021/03/07 10:40:00;;;;;;;8.70;5.07;;;;;;;17.69;17.39;98572.16;5052317;28;20052;-81
2021/03/07 10:42:38;;;;;;;8.85;4.65;;;;;;;16.77;18.04;98567.34;5044400;28;20021;-81
2021/03/07 10:45:17;;;;;;;8.60;4.75;;;;;;;16.40;18.36;98550.50;5032805;28;20022;-81
2021/03/07 10:47:57;;;;;;;6.47;4.20;;;;;;;17.98;17.33;98564.16;5033176;28;20033;-81
2021/03/07 10:50:23;;;;;;;6.28;4.18;;;;;;;19.82;15.84;98555.88;5032939;28;20024;-81
2021/03/07 10:52:49;;;;;;;5.35;3.72;;;;;;;20.30;15.91;98554.44;5032910;28;20029;-81
2021/03/07 10:55:15;;;;;;;7.95;5.00;;;;;;;19.87;15.77;98549.91;5032997;28;20026;-81
2021/03/07 10:57:42;;;;;;;8.18;3.78;;;;;;;18.00;18.10;98532.03;5032905;28;20112;-81
2021/03/07 11:00:09;;;;;;;11.05;4.03;;;;;;;16.82;18.96;98542.06;5023110;28;20034;-81
2021/03/07 11:02:36;;;;;;;5.68;3.75;;;;;;;17.16;18.27;98540.16;5013293;28;20034;-81
2021/03/07 11:05:02;;;;;;;5.80;3.97;;;;;;;16.50;19.40;98549.06;5013283;28;20371;-81
2021/03/07 11:07:28;;;;;;;6.22;3.90;;;;;;;16.21;19.26;98522.06;5016520;28;20536;-81
2021/03/07 11:09:54;;;;;;;8.10;4.03;;;;;;;17.89;17.51;98511.69;5016891;28;20064;-81
2021/03/07 11:12:20;;;;;;;6.53;3.80;;;;;;;17.71;18.08;98510.72;5017011;28;20038;-81
2021/03/07 11:14:46;;;;;;;4.93;3.63;;;;;;;16.56;19.73;98511.59;5017163;28;20033;-81
2021/03/07 11:17:13;;;;;;;4.68;3.58;;;;;;;16.68;19.67;98519.69;5026899;28;20045;-81
2021/03/07 11:19:39;;;;;;;5.63;3.88;;;;;;;16.76;19.85;98493.66;5015754;28;20033;-81
2021/03/07 11:22:05;;;;;;;5.97;3.25;;;;;;;18.59;18.55;98498.41;5017017;28;20030;-81
2021/03/07 11:24:31;;;;;;;7.32;4.13;;;;;;;19.62;17.21;98491.38;5016860;28;20029;-81
2021/03/07 11:26:57;;;;;;;5.93;3.83;;;;;;;19.08;17.29;98486.75;5017095;28;20026;-81
2021/03/07 11:29:23;;;;;;;10.55;3.92;;;;;;;17.85;17.96;98494.19;5039144;28;20033;-81
2021/03/07 11:31:49;;;;;;;8.38;4.45;;;;;;;17.41;18.15;98469.09;5020611;28;20038;-81
2021/03/07 11:34:15;;;;;;;4.43;3.08;;;;;;;17.79;19.24;98487.38;5031853;28;20030;-81
2021/03/07 11:36:41;;;;;;;6.63;3.42;;;;;;;18.36;18.30;98464.47;5052264;28;20025;-81
2021/03/07 11:39:07;;;;;;;5.38;3.90;;;;;;;17.86;17.44;98470.78;5055962;28;20558;-81
2021/03/07 11:41:33;;;;;;;6.22;3.15;;;;;;;21.20;15.07;98461.81;5056218;28;20108;-81
2021/03/07 11:43:59;;;;;;;6.47;3.53;;;;;;;20.98;15.35;98449.88;5056542;28;20091;-81
2021/03/07 11:46:26;;;;;;;4.95;3.30;;;;;;;20.05;15.76;98458.00;5056121;28;20036;-81
2021/03/07 11:48:52;;;;;;;6.70;3.70;;;;;;;19.26;16.01;98448.66;5056451;28;20069;-81